createdAt,value
2018-04-15T00:00:46.616Z,26.86
2018-04-15T00:01:46.546Z,26.72
2018-04-15T00:02:46.517Z,26.74
2018-04-15T00:03:46.471Z,26.67
2018-04-15T00:04:46.457Z,26.61
2018-04-15T00:05:46.477Z,26.53
2018-04-15T00:06:46.617Z,26.54
2018-04-15T00:07:46.393Z,26.52
2018-04-15T00:08:46.396Z,26.42
2018-04-15T00:09:46.329Z,26.39
2018-04-15T00:10:46.347Z,26.37
2018-04-15T00:11:46.289Z,26.35
2018-04-15T00:12:46.411Z,26.34
2018-04-15T00:13:46.309Z,26.23
2018-04-15T00:14:46.212Z,26.19
2018-04-15T00:15:46.240Z,26.07
2018-04-15T00:16:46.164Z,26.09
2018-04-15T00:17:46.197Z,26.01
2018-04-15T00:18:46.110Z,25.93
2018-04-15T00:19:46.093Z,25.96
2018-04-15T00:20:46.072Z,25.89
2018-04-15T00:21:46.103Z,25.96
2018-04-15T00:22:46.086Z,25.94
2018-04-15T00:23:45.976Z,25.99
2018-04-15T00:24:45.966Z,26.04
2018-04-15T00:25:45.946Z,25.99
2018-04-15T00:26:45.909Z,26.03
2018-04-15T00:27:46.054Z,26.09
2018-04-15T00:28:45.892Z,26.11
2018-04-15T00:29:45.884Z,26.06
2018-04-15T00:30:45.822Z,26.06
2018-04-15T00:31:45.785Z,26.07
2018-04-15T00:32:45.843Z,26.09
2018-04-15T00:33:45.725Z,26.09
2018-04-15T00:34:45.721Z,26.03
2018-04-15T00:35:45.714Z,26.12
2018-04-15T00:36:45.667Z,26.06
2018-04-15T00:37:45.665Z,26.00
2018-04-15T00:38:45.693Z,25.86
2018-04-15T00:39:45.588Z,25.89
2018-04-15T00:40:45.562Z,25.91
2018-04-15T00:41:45.521Z,25.93
2018-04-15T00:42:45.491Z,25.91
2018-04-15T00:43:45.683Z,25.99
2018-04-15T00:44:45.591Z,25.93
2018-04-15T00:45:45.445Z,25.86
2018-04-15T00:46:45.406Z,25.88
2018-04-15T00:47:45.394Z,25.89
2018-04-15T00:48:45.368Z,25.88
2018-04-15T00:49:45.420Z,25.88
2018-04-15T00:50:45.329Z,25.85
2018-04-15T00:51:45.281Z,25.88
2018-04-15T00:52:45.306Z,25.93
2018-04-15T00:53:45.219Z,25.89
2018-04-15T00:54:45.279Z,25.79
2018-04-15T00:55:45.170Z,25.78
2018-04-15T00:56:45.163Z,25.64
2018-04-15T00:57:45.687Z,25.62
2018-04-15T00:58:45.127Z,25.63
2018-04-15T00:59:45.288Z,25.54
2018-04-15T01:00:45.131Z,25.54
2018-04-15T01:01:45.031Z,25.52
2018-04-15T01:02:45.003Z,25.51
2018-04-15T01:03:44.987Z,25.54
2018-04-15T01:04:45.183Z,25.59
2018-04-15T01:05:44.912Z,25.63
2018-04-15T01:06:44.923Z,25.62
2018-04-15T01:07:44.875Z,25.60
2018-04-15T01:08:44.975Z,25.69
2018-04-15T01:09:45.376Z,25.63
2018-04-15T01:10:44.860Z,25.67
2018-04-15T01:11:44.791Z,25.66
2018-04-15T01:12:44.834Z,25.69
2018-04-15T01:13:44.715Z,25.74
2018-04-15T01:14:44.696Z,25.71
2018-04-15T01:15:44.818Z,25.69
2018-04-15T01:16:44.637Z,25.71
2018-04-15T01:17:44.686Z,25.71
2018-04-15T01:18:44.616Z,25.71
2018-04-15T01:19:44.558Z,25.66
2018-04-15T01:20:44.884Z,25.67
2018-04-15T01:21:44.541Z,25.70
2018-04-15T01:22:44.481Z,25.71
2018-04-15T01:23:45.021Z,25.74
2018-04-15T01:24:44.442Z,25.74
2018-04-15T01:25:44.407Z,25.67
2018-04-15T01:26:44.610Z,25.76
2018-04-15T01:27:44.454Z,25.71
2018-04-15T01:28:44.330Z,25.66
2018-04-15T01:29:44.340Z,25.54
2018-04-15T01:30:44.416Z,25.49
2018-04-15T01:31:44.674Z,25.48
2018-04-15T01:32:44.910Z,25.60
2018-04-15T01:33:44.305Z,25.59
2018-04-15T01:34:44.828Z,25.57
2018-04-15T01:35:44.252Z,25.52
2018-04-15T01:36:44.314Z,25.60
2018-04-15T01:37:44.074Z,25.62
2018-04-15T01:38:44.072Z,25.60
2018-04-15T01:39:44.033Z,25.59
2018-04-15T01:40:44.003Z,25.49
2018-04-15T01:41:44.061Z,25.49
2018-04-15T01:42:44.059Z,25.54
2018-04-15T01:43:43.948Z,25.42
2018-04-15T01:44:43.919Z,25.48
2018-04-15T01:45:43.972Z,25.41
2018-04-15T01:46:43.867Z,25.38
2018-04-15T01:47:44.034Z,25.38
2018-04-15T01:48:43.946Z,25.44
2018-04-15T01:49:43.813Z,25.44
2018-04-15T01:50:43.785Z,25.34
2018-04-15T01:51:43.732Z,25.38
2018-04-15T01:52:43.906Z,25.41
2018-04-15T01:53:43.679Z,25.42
2018-04-15T01:54:43.677Z,25.32
2018-04-15T01:55:44.162Z,25.38
2018-04-15T01:56:43.605Z,25.34
2018-04-15T01:57:43.719Z,25.37
2018-04-15T01:58:43.545Z,25.41
2018-04-15T01:59:43.601Z,25.39
2018-04-15T02:00:43.478Z,25.30
2018-04-15T02:01:44.045Z,25.33
2018-04-15T02:02:43.971Z,25.34
2018-04-15T02:03:43.492Z,25.34
2018-04-15T02:04:43.425Z,25.42
2018-04-15T02:05:43.359Z,25.47
2018-04-15T02:06:43.437Z,25.30
2018-04-15T02:07:43.345Z,25.38
2018-04-15T02:08:43.479Z,25.34
2018-04-15T02:09:43.300Z,25.32
2018-04-15T02:10:43.456Z,25.27
2018-04-15T02:11:43.323Z,25.33
2018-04-15T02:12:43.261Z,25.30
2018-04-15T02:13:43.411Z,25.27
2018-04-15T02:14:43.190Z,25.29
2018-04-15T02:15:43.102Z,25.22
2018-04-15T02:16:43.086Z,25.22
2018-04-15T02:17:43.098Z,25.23
2018-04-15T02:18:43.071Z,25.14
2018-04-15T02:19:43.058Z,25.23
2018-04-15T02:20:42.983Z,25.14
2018-04-15T02:21:43.514Z,25.17
2018-04-15T02:22:42.929Z,25.09
2018-04-15T02:23:42.931Z,25.12
2018-04-15T02:24:43.016Z,25.11
2018-04-15T02:25:42.848Z,25.08
2018-04-15T02:26:42.833Z,25.09
2018-04-15T02:27:42.813Z,25.15
2018-04-15T02:28:43.322Z,25.17
2018-04-15T02:29:42.938Z,25.12
2018-04-15T02:30:42.701Z,25.09
2018-04-15T02:31:42.722Z,25.07
2018-04-15T02:32:42.681Z,25.07
2018-04-15T02:33:42.647Z,25.14
2018-04-15T02:34:42.739Z,25.11
2018-04-15T02:35:42.576Z,25.11
2018-04-15T02:36:42.577Z,25.08
2018-04-15T02:37:42.538Z,25.15
2018-04-15T02:38:42.865Z,25.11
2018-04-15T02:39:43.034Z,25.05
2018-04-15T02:40:42.827Z,25.02
2018-04-15T02:41:42.479Z,25.00
2018-04-15T02:42:42.872Z,25.02
2018-04-15T02:43:42.443Z,25.00
2018-04-15T02:44:42.935Z,25.00
2018-04-15T02:45:42.336Z,24.92
2018-04-15T02:46:42.342Z,24.93
2018-04-15T02:47:42.280Z,24.94
2018-04-15T02:48:42.239Z,25.00
2018-04-15T02:49:42.219Z,24.92
2018-04-15T02:50:42.695Z,24.97
2018-04-15T02:51:42.224Z,24.93
2018-04-15T02:52:42.146Z,25.00
2018-04-15T02:53:42.110Z,25.04
2018-04-15T02:54:42.114Z,24.96
2018-04-15T02:55:42.064Z,24.94
2018-04-15T02:56:42.601Z,24.97
2018-04-15T02:57:42.008Z,24.93
2018-04-15T02:58:42.539Z,25.02
2018-04-15T02:59:41.986Z,25.01
2018-04-15T03:00:41.967Z,25.01
2018-04-15T03:01:42.059Z,25.05
2018-04-15T03:02:42.454Z,25.01
2018-04-15T03:03:41.859Z,24.97
2018-04-15T03:04:41.835Z,25.01
2018-04-15T03:05:41.794Z,25.00
2018-04-15T03:06:41.914Z,25.04
2018-04-15T03:07:42.265Z,25.04
2018-04-15T03:08:41.914Z,25.00
2018-04-15T03:09:42.241Z,25.00
2018-04-15T03:10:41.672Z,25.01
2018-04-15T03:11:41.854Z,25.02
2018-04-15T03:12:41.637Z,24.96
2018-04-15T03:13:41.614Z,25.05
2018-04-15T03:14:41.643Z,24.94
2018-04-15T03:15:41.516Z,24.96
2018-04-15T03:16:41.531Z,24.94
2018-04-15T03:17:41.647Z,25.01
2018-04-15T03:18:41.432Z,24.93
2018-04-15T03:19:41.996Z,24.96
2018-04-15T03:20:41.370Z,24.94
2018-04-15T03:21:41.375Z,25.01
2018-04-15T03:22:41.324Z,24.96
2018-04-15T03:23:41.373Z,24.97
2018-04-15T03:24:41.280Z,25.01
2018-04-15T03:25:41.284Z,25.02
2018-04-15T03:26:41.217Z,25.01
2018-04-15T03:27:41.181Z,25.00
2018-04-15T03:28:41.785Z,25.11
2018-04-15T03:29:41.147Z,25.08
2018-04-15T03:30:42.073Z,25.11
2018-04-15T03:31:41.083Z,25.11
2018-04-15T03:32:41.106Z,25.15
2018-04-15T03:33:41.101Z,25.11
2018-04-15T03:34:41.022Z,25.11
2018-04-15T03:35:41.002Z,25.07
2018-04-15T03:36:40.955Z,25.09
2018-04-15T03:37:40.924Z,25.02
2018-04-15T03:38:41.142Z,25.01
2018-04-15T03:39:40.899Z,25.01
2018-04-15T03:40:40.885Z,25.00
2018-04-15T03:41:40.830Z,25.01
2018-04-15T03:42:40.815Z,24.96
2018-04-15T03:43:40.967Z,24.93
2018-04-15T03:44:40.754Z,24.90
2018-04-15T03:45:40.740Z,24.93
2018-04-15T03:46:40.732Z,24.85
2018-04-15T03:47:40.670Z,24.89
2018-04-15T03:48:40.805Z,24.92
2018-04-15T03:49:40.628Z,24.82
2018-04-15T03:50:40.635Z,24.77
2018-04-15T03:51:40.601Z,24.82
2018-04-15T03:52:40.533Z,24.92
2018-04-15T03:53:40.693Z,24.80
2018-04-15T03:54:40.523Z,24.78
2018-04-15T03:55:40.474Z,24.85
2018-04-15T03:56:40.445Z,24.93
2018-04-15T03:57:40.435Z,24.77
2018-04-15T03:58:40.408Z,24.86
2018-04-15T03:59:40.593Z,24.86
2018-04-15T04:00:40.329Z,24.93
2018-04-15T04:01:40.287Z,24.94
2018-04-15T04:02:40.279Z,24.92
2018-04-15T04:03:40.256Z,24.87
2018-04-15T04:04:40.231Z,24.90
2018-04-15T04:05:40.256Z,24.93
2018-04-15T04:06:40.195Z,24.92
2018-04-15T04:07:40.176Z,24.92
2018-04-15T04:08:40.134Z,24.90
2018-04-15T04:09:40.117Z,24.92
2018-04-15T04:10:40.093Z,24.87
2018-04-15T04:11:40.048Z,24.90
2018-04-15T04:12:40.022Z,24.96
2018-04-15T04:13:39.971Z,24.97
2018-04-15T04:14:39.942Z,24.90
2018-04-15T04:15:40.136Z,24.94
2018-04-15T04:16:39.898Z,24.89
2018-04-15T04:17:39.859Z,24.96
2018-04-15T04:18:39.850Z,24.93
2018-04-15T04:19:39.837Z,24.92
2018-04-15T04:20:40.075Z,24.93
2018-04-15T04:21:39.770Z,24.90
2018-04-15T04:22:39.723Z,24.94
2018-04-15T04:23:39.727Z,24.75
2018-04-15T04:24:39.698Z,24.83
2018-04-15T04:25:39.847Z,24.80
2018-04-15T04:26:39.647Z,24.77
2018-04-15T04:27:39.604Z,24.77
2018-04-15T04:28:39.566Z,24.82
2018-04-15T04:29:39.568Z,24.80
2018-04-15T04:30:39.712Z,24.80
2018-04-15T04:31:39.561Z,24.83
2018-04-15T04:32:39.492Z,24.80
2018-04-15T04:33:39.425Z,24.75
2018-04-15T04:34:39.433Z,24.75
2018-04-15T04:35:39.437Z,24.70
2018-04-15T04:36:39.508Z,24.75
2018-04-15T04:37:39.350Z,24.71
2018-04-15T04:38:39.306Z,24.70
2018-04-15T04:39:39.290Z,24.75
2018-04-15T04:40:39.258Z,24.74
2018-04-15T04:41:39.236Z,24.69
2018-04-15T04:42:39.248Z,24.83
2018-04-15T04:43:39.191Z,24.69
2018-04-15T04:44:39.170Z,24.74
2018-04-15T04:45:39.115Z,24.74
2018-04-15T04:46:39.098Z,24.63
2018-04-15T04:47:39.211Z,24.70
2018-04-15T04:48:39.094Z,24.61
2018-04-15T04:49:39.021Z,24.66
2018-04-15T04:50:38.999Z,24.59
2018-04-15T04:51:38.966Z,24.67
2018-04-15T04:52:39.144Z,24.64
2018-04-15T04:53:38.936Z,24.64
2018-04-15T04:54:38.927Z,24.66
2018-04-15T04:55:38.870Z,24.66
2018-04-15T04:56:38.866Z,24.67
2018-04-15T04:57:39.064Z,24.70
2018-04-15T04:58:38.781Z,24.74
2018-04-15T04:59:38.752Z,24.66
2018-04-15T05:00:38.742Z,24.71
2018-04-15T05:01:38.725Z,24.69
2018-04-15T05:02:38.897Z,24.75
2018-04-15T05:03:38.669Z,24.70
2018-04-15T05:04:38.673Z,24.75
2018-04-15T05:05:38.599Z,24.74
2018-04-15T05:06:38.580Z,24.83
2018-04-15T05:07:38.755Z,24.74
2018-04-15T05:08:38.522Z,24.78
2018-04-15T05:09:38.484Z,24.71
2018-04-15T05:10:38.461Z,24.69
2018-04-15T05:11:38.424Z,24.75
2018-04-15T05:12:38.428Z,24.66
2018-04-15T05:13:38.532Z,24.69
2018-04-15T05:14:38.336Z,24.66
2018-04-15T05:15:38.349Z,24.63
2018-04-15T05:16:38.292Z,24.59
2018-04-15T05:17:38.282Z,24.59
2018-04-15T05:18:38.246Z,24.61
2018-04-15T05:19:38.304Z,24.64
2018-04-15T05:20:38.188Z,24.70
2018-04-15T05:21:38.157Z,24.59
2018-04-15T05:22:38.120Z,24.61
2018-04-15T05:23:38.253Z,24.61
2018-04-15T05:24:38.356Z,24.56
2018-04-15T05:25:38.136Z,24.64
2018-04-15T05:26:38.115Z,24.70
2018-04-15T05:27:37.984Z,24.63
2018-04-15T05:28:37.979Z,24.70
2018-04-15T05:29:38.127Z,24.63
2018-04-15T05:30:37.925Z,24.63
2018-04-15T05:31:37.877Z,24.61
2018-04-15T05:32:37.895Z,24.61
2018-04-15T05:33:37.839Z,24.63
2018-04-15T05:34:38.011Z,24.64
2018-04-15T05:35:37.787Z,24.59
2018-04-15T05:36:37.786Z,24.58
2018-04-15T05:37:37.767Z,24.59
2018-04-15T05:38:37.712Z,24.64
2018-04-15T05:39:37.831Z,24.55
2018-04-15T05:40:37.700Z,24.67
2018-04-15T05:41:37.628Z,24.61
2018-04-15T05:42:37.597Z,24.56
2018-04-15T05:43:37.576Z,24.67
2018-04-15T05:44:37.548Z,24.61
2018-04-15T05:45:37.709Z,24.64
2018-04-15T05:46:37.489Z,24.59
2018-04-15T05:47:37.514Z,24.56
2018-04-15T05:48:37.431Z,24.58
2018-04-15T05:49:37.400Z,24.52
2018-04-15T05:50:37.382Z,24.51
2018-04-15T05:51:37.404Z,24.61
2018-04-15T05:52:37.356Z,24.52
2018-04-15T05:53:37.310Z,24.56
2018-04-15T05:54:37.294Z,24.64
2018-04-15T05:55:37.234Z,24.64
2018-04-15T05:56:37.263Z,24.48
2018-04-15T05:57:37.218Z,24.49
2018-04-15T05:58:37.146Z,24.52
2018-04-15T05:59:37.134Z,24.52
2018-04-15T06:00:37.122Z,24.52
2018-04-15T06:01:37.363Z,24.52
2018-04-15T06:02:37.076Z,24.55
2018-04-15T06:03:37.056Z,24.48
2018-04-15T06:04:37.034Z,24.48
2018-04-15T06:05:36.995Z,24.51
2018-04-15T06:06:37.137Z,24.42
2018-04-15T06:07:36.914Z,24.44
2018-04-15T06:08:36.931Z,24.49
2018-04-15T06:09:36.868Z,24.44
2018-04-15T06:10:36.837Z,24.46
2018-04-15T06:11:36.956Z,24.48
2018-04-15T06:12:36.785Z,24.42
2018-04-15T06:13:36.765Z,24.39
2018-04-15T06:14:36.736Z,24.37
2018-04-15T06:15:36.716Z,24.33
2018-04-15T06:16:36.737Z,24.36
2018-04-15T06:17:36.840Z,24.39
2018-04-15T06:18:36.667Z,24.29
2018-04-15T06:19:36.623Z,24.33
2018-04-15T06:20:36.552Z,24.29
2018-04-15T06:21:36.538Z,24.42
2018-04-15T06:22:36.561Z,24.39
2018-04-15T06:23:36.549Z,24.40
2018-04-15T06:24:36.507Z,24.40
2018-04-15T06:25:36.430Z,24.39
2018-04-15T06:26:36.499Z,24.39
2018-04-15T06:27:36.393Z,24.34
2018-04-15T06:28:36.369Z,24.32
2018-04-15T06:29:36.326Z,24.36
2018-04-15T06:30:36.329Z,24.29
2018-04-15T06:31:36.303Z,24.34
2018-04-15T06:32:36.223Z,24.29
2018-04-15T06:33:36.237Z,24.18
2018-04-15T06:34:36.172Z,24.32
2018-04-15T06:35:36.154Z,24.22
2018-04-15T06:36:36.125Z,24.27
2018-04-15T06:37:36.224Z,24.21
2018-04-15T06:38:36.291Z,24.26
2018-04-15T06:39:36.055Z,24.26
2018-04-15T06:40:36.028Z,24.24
2018-04-15T06:41:35.996Z,24.27
2018-04-15T06:42:35.980Z,24.21
2018-04-15T06:43:36.141Z,24.21
2018-04-15T06:44:35.914Z,24.24
2018-04-15T06:45:35.882Z,24.24
2018-04-15T06:46:35.862Z,24.26
2018-04-15T06:47:35.848Z,24.18
2018-04-15T06:48:36.007Z,24.26
2018-04-15T06:49:35.799Z,24.09
2018-04-15T06:50:35.833Z,24.18
2018-04-15T06:51:35.743Z,24.22
2018-04-15T06:52:35.739Z,24.19
2018-04-15T06:53:35.706Z,24.19
2018-04-15T06:54:35.825Z,24.19
2018-04-15T06:55:35.625Z,24.22
2018-04-15T06:56:35.645Z,24.19
2018-04-15T06:57:35.548Z,24.26
2018-04-15T06:58:35.528Z,24.22
2018-04-15T06:59:35.601Z,24.21
2018-04-15T07:00:35.488Z,24.29
2018-04-15T07:01:35.479Z,24.26
2018-04-15T07:02:35.435Z,24.21
2018-04-15T07:03:35.398Z,24.24
2018-04-15T07:04:35.359Z,24.21
2018-04-15T07:05:35.405Z,24.26
2018-04-15T07:06:35.341Z,24.09
2018-04-15T07:07:35.289Z,24.12
2018-04-15T07:08:35.285Z,24.04
2018-04-15T07:09:35.233Z,24.18
2018-04-15T07:10:35.256Z,24.15
2018-04-15T07:11:35.181Z,24.11
2018-04-15T07:12:35.181Z,24.17
2018-04-15T07:13:35.122Z,24.08
2018-04-15T07:14:35.120Z,24.17
2018-04-15T07:15:35.274Z,24.11
2018-04-15T07:16:35.123Z,24.09
2018-04-15T07:17:35.013Z,24.18
2018-04-15T07:18:35.003Z,24.22
2018-04-15T07:19:34.975Z,24.21
2018-04-15T07:20:35.135Z,24.29
2018-04-15T07:21:34.911Z,24.19
2018-04-15T07:22:34.927Z,24.22
2018-04-15T07:23:34.865Z,24.26
2018-04-15T07:24:34.850Z,24.17
2018-04-15T07:25:34.859Z,24.30
2018-04-15T07:26:34.814Z,24.19
2018-04-15T07:27:34.751Z,24.21
2018-04-15T07:28:34.762Z,24.24
2018-04-15T07:29:34.692Z,24.14
2018-04-15T07:30:34.694Z,24.12
2018-04-15T07:31:34.816Z,24.12
2018-04-15T07:32:34.605Z,24.18
2018-04-15T07:33:34.715Z,24.26
2018-04-15T07:34:34.579Z,24.29
2018-04-15T07:35:34.547Z,24.17
2018-04-15T07:36:34.718Z,24.17
2018-04-15T07:37:34.479Z,24.14
2018-04-15T07:38:34.490Z,24.17
2018-04-15T07:39:34.426Z,24.15
2018-04-15T07:40:34.394Z,24.17
2018-04-15T07:41:34.358Z,24.09
2018-04-15T07:42:34.379Z,24.09
2018-04-15T07:43:34.325Z,24.12
2018-04-15T07:44:34.287Z,24.14
2018-04-15T07:45:34.270Z,24.11
2018-04-15T07:46:34.262Z,24.09
2018-04-15T07:47:34.264Z,24.09
2018-04-15T07:48:34.184Z,24.12
2018-04-15T07:49:34.156Z,24.09
2018-04-15T07:50:34.207Z,24.15
2018-04-15T07:51:34.137Z,24.11
2018-04-15T07:52:34.256Z,24.12
2018-04-15T07:53:34.062Z,24.04
2018-04-15T07:54:34.021Z,24.08
2018-04-15T07:55:33.996Z,24.03
2018-04-15T07:56:33.968Z,24.11
2018-04-15T07:57:34.107Z,24.11
2018-04-15T07:58:33.911Z,24.04
2018-04-15T07:59:33.883Z,24.07
2018-04-15T08:00:33.859Z,24.11
2018-04-15T08:01:33.869Z,24.04
2018-04-15T08:02:33.852Z,24.09
2018-04-15T08:03:33.823Z,24.07
2018-04-15T08:04:33.762Z,24.02
2018-04-15T08:05:33.723Z,24.09
2018-04-15T08:06:33.751Z,24.09
2018-04-15T08:07:33.665Z,24.04
2018-04-15T08:08:33.773Z,23.99
2018-04-15T08:09:33.612Z,24.11
2018-04-15T08:10:33.598Z,23.99
2018-04-15T08:11:33.535Z,23.97
2018-04-15T08:12:33.523Z,23.99
2018-04-15T08:13:33.661Z,23.99
2018-04-15T08:14:33.512Z,23.96
2018-04-15T08:15:33.426Z,23.96
2018-04-15T08:16:33.414Z,23.87
2018-04-15T08:17:33.403Z,23.94
2018-04-15T08:18:33.374Z,23.93
2018-04-15T08:19:33.373Z,23.90
2018-04-15T08:20:33.317Z,23.89
2018-04-15T08:21:33.311Z,23.97
2018-04-15T08:22:33.261Z,23.93
2018-04-15T08:23:33.228Z,23.92
2018-04-15T08:24:33.246Z,23.92
2018-04-15T08:25:33.180Z,23.99
2018-04-15T08:26:33.149Z,23.93
2018-04-15T08:27:33.119Z,23.87
2018-04-15T08:28:33.115Z,23.96
2018-04-15T08:29:33.123Z,23.96
2018-04-15T08:30:33.029Z,23.89
2018-04-15T08:31:32.993Z,23.87
2018-04-15T08:32:32.980Z,23.87
2018-04-15T08:33:32.949Z,23.94
2018-04-15T08:34:33.127Z,23.92
2018-04-15T08:35:32.907Z,23.90
2018-04-15T08:36:32.852Z,23.90
2018-04-15T08:37:32.853Z,23.90
2018-04-15T08:38:32.807Z,23.90
2018-04-15T08:39:32.858Z,23.89
2018-04-15T08:40:32.807Z,23.89
2018-04-15T08:41:32.751Z,23.77
2018-04-15T08:42:32.719Z,23.90
2018-04-15T08:43:32.689Z,23.94
2018-04-15T08:44:32.676Z,23.94
2018-04-15T08:45:32.685Z,23.92
2018-04-15T08:46:32.592Z,23.89
2018-04-15T08:47:32.612Z,23.94
2018-04-15T08:48:32.544Z,23.87
2018-04-15T08:49:32.513Z,23.92
2018-04-15T08:50:32.635Z,23.84
2018-04-15T08:51:32.471Z,23.81
2018-04-15T08:52:32.432Z,23.84
2018-04-15T08:53:32.410Z,23.82
2018-04-15T08:54:32.419Z,23.82
2018-04-15T08:55:32.356Z,23.84
2018-04-15T08:56:32.404Z,23.84
2018-04-15T08:57:32.287Z,23.87
2018-04-15T08:58:32.309Z,23.84
2018-04-15T08:59:32.283Z,23.82
2018-04-15T09:00:32.217Z,23.77
2018-04-15T09:01:32.184Z,23.77
2018-04-15T09:02:32.181Z,23.84
2018-04-15T09:03:32.117Z,23.81
2018-04-15T09:04:32.110Z,23.75
2018-04-15T09:05:32.059Z,23.84
2018-04-15T09:06:32.108Z,23.82
2018-04-15T09:07:32.038Z,23.87
2018-04-15T09:08:32.003Z,23.92
2018-04-15T09:09:32.004Z,23.84
2018-04-15T09:10:31.929Z,23.89
2018-04-15T09:11:32.143Z,23.84
2018-04-15T09:12:31.868Z,23.81
2018-04-15T09:13:31.849Z,23.81
2018-04-15T09:14:31.822Z,23.82
2018-04-15T09:15:31.812Z,23.78
2018-04-15T09:16:31.933Z,23.84
2018-04-15T09:17:31.784Z,23.78
2018-04-15T09:18:31.732Z,23.78
2018-04-15T09:19:31.681Z,23.77
2018-04-15T09:20:31.706Z,23.87
2018-04-15T09:21:31.775Z,23.99
2018-04-15T09:22:31.616Z,23.93
2018-04-15T09:23:31.586Z,23.84
2018-04-15T09:24:31.543Z,23.84
2018-04-15T09:25:31.512Z,23.85
2018-04-15T09:26:31.657Z,23.79
2018-04-15T09:27:31.495Z,23.90
2018-04-15T09:28:31.432Z,23.90
2018-04-15T09:29:31.460Z,23.90
2018-04-15T09:30:31.391Z,23.93
2018-04-15T09:31:31.359Z,23.92
2018-04-15T09:32:31.549Z,23.92
2018-04-15T09:33:31.341Z,23.92
2018-04-15T09:34:31.310Z,23.77
2018-04-15T09:35:31.273Z,23.81
2018-04-15T09:36:31.267Z,23.85
2018-04-15T09:37:31.195Z,23.82
2018-04-15T09:38:31.230Z,23.92
2018-04-15T09:39:31.132Z,23.89
2018-04-15T09:40:31.130Z,23.87
2018-04-15T09:41:31.094Z,23.90
2018-04-15T09:42:31.097Z,23.79
2018-04-15T09:43:31.039Z,23.87
2018-04-15T09:44:30.995Z,23.85
2018-04-15T09:45:30.983Z,23.78
2018-04-15T09:46:30.966Z,23.82
2018-04-15T09:47:30.905Z,23.82
2018-04-15T09:48:31.105Z,23.84
2018-04-15T09:49:30.875Z,23.78
2018-04-15T09:50:30.882Z,23.75
2018-04-15T09:51:31.856Z,23.81
2018-04-15T09:52:31.003Z,23.82
2018-04-15T09:54:31.122Z,23.82
2018-04-15T09:55:30.943Z,23.75
2018-04-15T09:56:30.773Z,23.79
2018-04-15T09:57:30.886Z,23.75
2018-04-15T09:58:30.817Z,23.72
2018-04-15T09:59:31.062Z,23.78
2018-04-15T10:00:30.563Z,23.81
2018-04-15T10:01:30.906Z,23.75
2018-04-15T10:02:30.839Z,23.77
2018-04-15T10:03:30.721Z,23.81
2018-04-15T10:04:30.609Z,23.71
2018-04-15T10:05:30.604Z,23.77
2018-04-15T10:06:30.475Z,23.75
2018-04-15T10:07:30.433Z,23.74
2018-04-15T10:08:30.354Z,23.75
2018-04-15T10:09:31.030Z,23.77
2018-04-15T10:10:30.335Z,23.74
2018-04-15T10:11:30.500Z,23.75
2018-04-15T10:12:30.513Z,23.81
2018-04-15T10:13:30.511Z,23.77
2018-04-15T10:14:30.623Z,23.77
2018-04-15T10:15:31.589Z,23.75
2018-04-15T10:16:30.167Z,23.79
2018-04-15T10:17:30.118Z,23.70
2018-04-15T10:18:30.087Z,23.74
2018-04-15T10:19:30.059Z,23.71
2018-04-15T10:20:30.091Z,23.70
2018-04-15T10:21:29.989Z,23.72
2018-04-15T10:22:29.959Z,23.75
2018-04-15T10:23:29.950Z,23.75
2018-04-15T10:24:29.909Z,23.75
2018-04-15T10:25:30.079Z,23.78
2018-04-15T10:26:29.855Z,23.79
2018-04-15T10:27:29.825Z,23.74
2018-04-15T10:28:29.790Z,23.78
2018-04-15T10:29:29.775Z,23.79
2018-04-15T10:30:29.901Z,23.74
2018-04-15T10:31:29.737Z,23.74
2018-04-15T10:32:29.695Z,23.78
2018-04-15T10:33:29.644Z,23.78
2018-04-15T10:34:29.627Z,23.78
2018-04-15T10:35:29.755Z,23.77
2018-04-15T10:36:29.592Z,23.75
2018-04-15T10:37:29.537Z,23.75
2018-04-15T10:38:29.527Z,23.75
2018-04-15T10:39:29.478Z,23.75
2018-04-15T10:40:29.475Z,23.74
2018-04-15T10:41:29.456Z,23.78
2018-04-15T10:42:29.425Z,23.75
2018-04-15T10:43:29.396Z,23.75
2018-04-15T10:44:29.371Z,23.78
2018-04-15T10:45:29.344Z,23.79
2018-04-15T10:46:29.543Z,23.82
2018-04-15T10:47:29.294Z,23.79
2018-04-15T10:48:29.242Z,23.79
2018-04-15T10:49:29.244Z,23.78
2018-04-15T10:50:29.203Z,23.75
2018-04-15T10:51:29.178Z,23.71
2018-04-15T10:52:29.132Z,23.72
2018-04-15T10:53:29.155Z,23.62
2018-04-15T10:54:29.097Z,23.64
2018-04-15T10:55:29.064Z,23.67
2018-04-15T10:56:29.019Z,23.66
2018-04-15T10:57:28.993Z,23.72
2018-04-15T10:58:28.969Z,23.67
2018-04-15T10:59:28.951Z,23.75
2018-04-15T11:00:28.942Z,23.72
2018-04-15T11:01:28.886Z,23.70
2018-04-15T11:02:29.055Z,23.64
2018-04-15T11:03:28.838Z,23.70
2018-04-15T11:04:28.795Z,23.67
2018-04-15T11:05:28.790Z,23.64
2018-04-15T11:06:28.771Z,23.67
2018-04-15T11:07:28.941Z,23.75
2018-04-15T11:08:28.686Z,23.75
2018-04-15T11:09:28.672Z,23.66
2018-04-15T11:10:28.636Z,23.64
2018-04-15T11:11:28.607Z,23.77
2018-04-15T11:12:28.775Z,23.72
2018-04-15T11:13:28.574Z,23.78
2018-04-15T11:14:28.532Z,23.64
2018-04-15T11:15:28.520Z,23.62
2018-04-15T11:16:28.478Z,23.64
2018-04-15T11:17:28.459Z,23.59
2018-04-15T11:18:28.492Z,23.57
2018-04-15T11:19:28.409Z,23.70
2018-04-15T11:20:28.462Z,23.60
2018-04-15T11:21:28.339Z,23.59
2018-04-15T11:22:28.309Z,23.70
2018-04-15T11:23:28.438Z,23.66
2018-04-15T11:24:28.257Z,23.67
2018-04-15T11:25:28.230Z,23.64
2018-04-15T11:26:28.199Z,23.66
2018-04-15T11:27:28.253Z,23.70
2018-04-15T11:28:28.288Z,23.70
2018-04-15T11:29:28.130Z,23.71
2018-04-15T11:30:28.079Z,23.71
2018-04-15T11:31:28.077Z,23.64
2018-04-15T11:32:28.033Z,23.63
2018-04-15T11:33:28.187Z,23.72
2018-04-15T11:34:27.997Z,23.70
2018-04-15T11:35:28.005Z,23.74
2018-04-15T11:36:27.932Z,23.84
2018-04-15T11:37:27.917Z,23.84
2018-04-15T11:38:28.167Z,23.87
2018-04-15T11:39:27.850Z,23.84
2018-04-15T11:40:27.866Z,23.77
2018-04-15T11:41:27.788Z,23.87
2018-04-15T11:42:27.767Z,23.94
2018-04-15T11:43:27.922Z,23.94
2018-04-15T11:44:27.709Z,23.96
2018-04-15T11:45:27.692Z,23.92
2018-04-15T11:46:27.670Z,24.03
2018-04-15T11:47:27.700Z,24.08
2018-04-15T11:48:27.780Z,24.08
2018-04-15T11:49:27.581Z,24.11
2018-04-15T11:50:27.557Z,24.04
2018-04-15T11:51:27.576Z,24.08
2018-04-15T11:52:27.517Z,24.04
2018-04-15T11:53:27.486Z,24.00
2018-04-15T11:54:27.580Z,24.02
2018-04-15T11:55:27.421Z,23.96
2018-04-15T11:56:27.381Z,23.89
2018-04-15T11:57:27.368Z,23.94
2018-04-15T11:58:27.322Z,23.96
2018-04-15T11:59:27.318Z,24.00
2018-04-15T12:00:27.481Z,23.96
2018-04-15T12:01:27.260Z,23.99
2018-04-15T12:02:27.230Z,24.00
2018-04-15T12:03:27.184Z,24.08
2018-04-15T12:04:27.174Z,24.08
2018-04-15T12:05:27.144Z,24.03
2018-04-15T12:06:27.138Z,24.11
2018-04-15T12:07:27.085Z,24.12
2018-04-15T12:08:27.088Z,24.09
2018-04-15T12:09:27.062Z,24.21
2018-04-15T12:10:27.001Z,24.26
2018-04-15T12:11:27.030Z,24.19
2018-04-15T12:12:26.951Z,24.32
2018-04-15T12:13:26.953Z,24.34
2018-04-15T12:14:26.897Z,24.37
2018-04-15T12:15:26.851Z,24.49
2018-04-15T12:16:26.950Z,24.48
2018-04-15T12:17:26.837Z,24.49
2018-04-15T12:18:26.786Z,24.44
2018-04-15T12:19:26.935Z,24.52
2018-04-15T12:20:26.767Z,24.54
2018-04-15T12:21:26.922Z,24.48
2018-04-15T12:22:26.699Z,24.49
2018-04-15T12:23:26.676Z,24.54
2018-04-15T12:24:26.658Z,24.51
2018-04-15T12:25:26.597Z,24.58
2018-04-15T12:26:26.593Z,24.66
2018-04-15T12:27:26.556Z,24.64
2018-04-15T12:28:26.520Z,24.71
2018-04-15T12:29:26.528Z,24.78
2018-04-15T12:30:26.456Z,24.75
2018-04-15T12:31:26.406Z,24.86
2018-04-15T12:32:26.653Z,24.87
2018-04-15T12:33:26.344Z,24.93
2018-04-15T12:34:26.368Z,25.01
2018-04-15T12:35:26.308Z,25.04
2018-04-15T12:36:26.320Z,25.02
2018-04-15T12:37:26.401Z,25.05
2018-04-15T12:38:26.235Z,25.12
2018-04-15T12:39:26.197Z,25.14
2018-04-15T12:40:26.205Z,25.23
2018-04-15T12:41:26.166Z,25.33
2018-04-15T12:42:26.290Z,25.32
2018-04-15T12:43:26.115Z,25.37
2018-04-15T12:44:26.106Z,25.41
2018-04-15T12:45:26.075Z,25.34
2018-04-15T12:46:26.009Z,25.34
2018-04-15T12:47:26.164Z,25.47
2018-04-15T12:48:25.976Z,25.44
2018-04-15T12:49:25.918Z,25.48
2018-04-15T12:50:25.917Z,25.45
2018-04-15T12:51:25.886Z,25.59
2018-04-15T12:52:26.024Z,25.52
2018-04-15T12:53:25.828Z,25.63